Moosonee, Canada
Current Conditions -  °F | °C
As of 9:00 AM on Wednesday 28 Jan 2015 (Local Time) from CYMO Reporting Station
Light Snow Light Snow  
Wind Chill:   Ceiling: 2300
Heat Index: 16°   Visibility: 9mi
Dew Point: 12°   Wind: 7mph
Humidity: 86%   Direction: 220°SW
Pressure: 30.1"   Gusts: NA
Location:  51.27°N, 80.64°W
Report Text: CYMO 281400Z AUTO 22006KT 9SM -SN OVC023 M09/M11 A3010 RMK SLP193
Loading
Personal Weather Stations






























Interactive Weather Map New forecast layout! Learn more

10-Day Weather Forecast

Advertisements
Track Severe Weather on mobile